createdAt,value
2022-12-17T00:01:56.695Z,34.00
2022-12-17T00:04:17.097Z,31.57
2022-12-17T00:06:37.917Z,29.93
2022-12-17T00:08:58.525Z,29.30
2022-12-17T00:11:19.065Z,32.60
2022-12-17T00:13:41.578Z,30.73
2022-12-17T00:16:09.864Z,30.30
2022-12-17T00:18:30.291Z,30.50
2022-12-17T00:20:53.208Z,33.07
2022-12-17T00:23:18.128Z,30.97
2022-12-17T00:25:38.437Z,35.43
2022-12-17T00:27:58.993Z,32.50
2022-12-17T00:30:19.248Z,33.00
2022-12-17T00:32:40.990Z,30.00
2022-12-17T00:35:01.645Z,32.20
2022-12-17T00:37:22.010Z,33.60
2022-12-17T00:39:42.551Z,38.43
2022-12-17T00:42:02.857Z,37.83
2022-12-17T00:44:23.334Z,33.20
2022-12-17T00:46:43.689Z,31.47
2022-12-17T00:49:05.705Z,30.50
2022-12-17T00:51:25.919Z,31.93
2022-12-17T00:53:46.195Z,33.57
2022-12-17T00:56:06.758Z,30.40
2022-12-17T00:58:27.177Z,31.10
2022-12-17T01:00:47.978Z,27.43
2022-12-17T01:03:08.645Z,32.03
2022-12-17T01:05:31.064Z,30.03
2022-12-17T01:07:52.639Z,31.43
2022-12-17T01:10:13.155Z,29.87
2022-12-17T01:12:33.536Z,35.53
2022-12-17T01:14:54.908Z,34.67
2022-12-17T01:17:15.306Z,28.23
2022-12-17T01:19:36.056Z,31.60
2022-12-17T01:21:57.246Z,33.67
2022-12-17T01:24:17.448Z,30.77
2022-12-17T01:26:37.750Z,30.27
2022-12-17T01:28:58.463Z,27.50
2022-12-17T01:31:18.915Z,33.83
2022-12-17T01:33:39.682Z,30.63
2022-12-17T01:36:00.438Z,31.33
2022-12-17T01:38:22.225Z,29.17
2022-12-17T01:40:44.716Z,28.97
2022-12-17T01:43:05.994Z,27.77
2022-12-17T01:45:30.015Z,25.47
2022-12-17T01:47:53.788Z,26.70
2022-12-17T01:50:31.758Z,27.07
2022-12-17T01:52:52.679Z,26.47
2022-12-17T01:55:11.220Z,25.93
2022-12-17T01:57:46.607Z,28.63
2022-12-17T02:00:18.957Z,33.57
2022-12-17T02:02:39.854Z,27.50
2022-12-17T02:05:00.612Z,28.83
2022-12-17T02:07:38.954Z,29.23
2022-12-17T02:10:05.461Z,22.87
2022-12-17T02:12:36.066Z,30.13
2022-12-17T02:15:19.920Z,28.93
2022-12-17T02:17:43.863Z,29.50
2022-12-17T02:20:23.505Z,25.83
2022-12-17T02:22:48.744Z,28.00
2022-12-17T02:25:14.142Z,26.37
2022-12-17T02:27:36.377Z,29.63
2022-12-17T02:30:01.711Z,25.03
2022-12-17T02:32:24.968Z,25.97
2022-12-17T02:34:45.855Z,23.80
2022-12-17T02:37:06.987Z,25.77
2022-12-17T02:39:27.387Z,24.43
2022-12-17T02:42:01.710Z,21.13
2022-12-17T02:44:24.942Z,20.33
2022-12-17T02:46:45.983Z,24.87
2022-12-17T02:49:06.669Z,21.73
2022-12-17T02:51:27.456Z,21.97
2022-12-17T02:53:50.577Z,20.30
2022-12-17T02:56:11.147Z,23.20
2022-12-17T02:58:31.532Z,19.20
2022-12-17T03:00:53.446Z,20.03
2022-12-17T03:03:13.957Z,24.77
2022-12-17T03:05:49.830Z,17.33
2022-12-17T03:08:10.396Z,14.93
2022-12-17T03:10:35.965Z,15.73
2022-12-17T03:12:56.614Z,17.53
2022-12-17T03:15:16.912Z,14.83
2022-12-17T03:17:38.847Z,15.87
2022-12-17T03:19:59.287Z,14.33
2022-12-17T03:22:19.915Z,14.13
2022-12-17T03:24:40.280Z,11.53
2022-12-17T03:27:00.751Z,11.63
2022-12-17T03:29:21.026Z,18.70
2022-12-17T03:31:41.977Z,17.83
2022-12-17T03:34:04.346Z,13.87
2022-12-17T03:36:25.630Z,13.97
2022-12-17T03:38:46.270Z,12.77
2022-12-17T03:41:09.335Z,14.53
2022-12-17T03:43:30.664Z,16.00
2022-12-17T03:45:51.052Z,15.00
2022-12-17T03:48:21.301Z,18.13
2022-12-17T03:50:43.311Z,18.47
2022-12-17T03:53:05.443Z,31.40
2022-12-17T03:55:27.042Z,31.63
2022-12-17T03:57:47.339Z,32.63
2022-12-17T04:00:07.886Z,36.00
2022-12-17T04:02:42.980Z,37.33
2022-12-17T04:05:03.558Z,37.30
2022-12-17T04:07:25.473Z,42.70
2022-12-17T04:09:45.943Z,39.83
2022-12-17T04:12:17.729Z,35.03
2022-12-17T04:14:46.382Z,36.93
2022-12-17T04:17:06.901Z,37.70
2022-12-17T04:19:27.279Z,32.93
2022-12-17T04:21:47.729Z,37.20
2022-12-17T04:24:09.539Z,38.27
2022-12-17T04:26:30.241Z,35.87
2022-12-17T04:28:50.553Z,38.07
2022-12-17T04:31:11.167Z,34.63
2022-12-17T04:33:30.795Z,27.97
2022-12-17T04:35:51.464Z,34.13
2022-12-17T04:38:12.050Z,33.67
2022-12-17T04:40:34.323Z,30.00
2022-12-17T04:42:54.665Z,26.40
2022-12-17T04:45:15.215Z,24.50
2022-12-17T04:47:37.836Z,27.53
2022-12-17T04:49:57.997Z,25.70
2022-12-17T04:52:18.407Z,29.97
2022-12-17T04:54:38.852Z,25.77
2022-12-17T04:57:00.355Z,22.73
2022-12-17T04:59:20.625Z,28.97
2022-12-17T05:01:41.006Z,23.30
2022-12-17T05:04:01.887Z,26.03
2022-12-17T05:06:22.602Z,27.67
2022-12-17T05:08:46.399Z,27.57
2022-12-17T05:11:07.016Z,24.33
2022-12-17T05:13:29.237Z,27.37
2022-12-17T05:15:53.169Z,27.37
2022-12-17T05:18:22.113Z,29.97
2022-12-17T05:20:42.411Z,31.23
2022-12-17T05:23:02.628Z,25.40
2022-12-17T05:25:24.172Z,25.50
2022-12-17T05:27:44.310Z,32.03
2022-12-17T05:30:06.235Z,24.40
2022-12-17T05:32:26.611Z,27.83
2022-12-17T05:34:47.143Z,21.43
2022-12-17T05:37:07.767Z,25.10
2022-12-17T05:39:28.449Z,25.07
2022-12-17T05:41:48.897Z,21.83
2022-12-17T05:44:09.254Z,21.20
2022-12-17T05:46:31.150Z,19.63
2022-12-17T05:48:52.605Z,24.83
2022-12-17T05:51:12.855Z,27.33
2022-12-17T05:53:33.543Z,21.90
2022-12-17T05:55:54.340Z,23.80
2022-12-17T05:58:23.066Z,23.63
2022-12-17T06:00:43.349Z,21.80
2022-12-17T06:03:04.997Z,26.00
2022-12-17T06:05:26.978Z,18.93
2022-12-17T06:07:47.585Z,21.93
2022-12-17T06:10:07.811Z,27.17
2022-12-17T06:12:28.093Z,23.30
2022-12-17T06:14:48.803Z,22.63
2022-12-17T06:17:09.093Z,23.63
2022-12-17T06:19:30.833Z,26.97
2022-12-17T06:21:51.234Z,27.37
2022-12-17T06:24:11.926Z,25.43
2022-12-17T06:26:32.587Z,23.70
2022-12-17T06:28:53.347Z,25.20
2022-12-17T06:31:14.120Z,25.07
2022-12-17T06:33:37.191Z,23.37
2022-12-17T06:35:58.784Z,25.13
2022-12-17T06:38:19.823Z,27.60
2022-12-17T06:40:42.285Z,23.17
2022-12-17T06:43:11.797Z,30.33
2022-12-17T06:45:32.239Z,28.00
2022-12-17T06:47:52.555Z,31.53
2022-12-17T06:50:12.901Z,29.57
2022-12-17T06:52:34.987Z,28.33
2022-12-17T06:54:55.304Z,31.77
2022-12-17T06:57:15.657Z,36.97
2022-12-17T06:59:36.339Z,25.07
2022-12-17T07:01:56.787Z,27.20
2022-12-17T07:04:17.104Z,28.13
2022-12-17T07:06:37.600Z,27.90
2022-12-17T07:08:59.485Z,24.33
2022-12-17T07:11:20.886Z,24.23
2022-12-17T07:13:41.195Z,27.93
2022-12-17T07:16:01.932Z,29.27
2022-12-17T07:18:23.139Z,30.27
2022-12-17T07:20:43.496Z,26.23
2022-12-17T07:23:03.815Z,26.00
2022-12-17T07:25:26.484Z,27.90
2022-12-17T07:27:47.244Z,37.70
2022-12-17T07:30:07.738Z,54.77
2022-12-17T07:32:28.279Z,52.17
2022-12-17T07:34:48.860Z,46.67
2022-12-17T07:37:09.123Z,31.47
2022-12-17T07:39:29.652Z,28.47
2022-12-17T07:41:51.310Z,31.20
2022-12-17T07:44:14.342Z,23.63
2022-12-17T07:46:34.823Z,31.23
2022-12-17T07:48:55.293Z,28.70
2022-12-17T07:51:15.819Z,35.50
2022-12-17T07:53:36.558Z,35.60
2022-12-17T07:55:57.298Z,34.63
2022-12-17T07:58:21.823Z,33.43
2022-12-17T08:00:47.539Z,38.03
2022-12-17T08:03:15.794Z,30.93
2022-12-17T08:05:36.528Z,31.37
2022-12-17T08:07:59.908Z,35.43
2022-12-17T08:10:20.368Z,36.07
2022-12-17T08:12:40.673Z,37.33
2022-12-17T08:15:02.513Z,32.97
2022-12-17T08:17:23.042Z,28.07
2022-12-17T08:19:43.846Z,31.77
2022-12-17T08:22:04.633Z,29.10
2022-12-17T08:24:27.592Z,28.17
2022-12-17T08:26:48.554Z,23.13
2022-12-17T08:29:09.172Z,23.47
2022-12-17T08:31:30.790Z,21.07
2022-12-17T08:33:51.294Z,27.77
2022-12-17T08:36:12.991Z,24.00
2022-12-17T08:38:33.708Z,24.77
2022-12-17T08:40:54.119Z,21.43
2022-12-17T08:43:17.809Z,34.80
2022-12-17T08:45:38.387Z,43.67
2022-12-17T08:48:03.896Z,29.73
2022-12-17T08:50:40.559Z,30.70
2022-12-17T08:53:01.208Z,31.47
2022-12-17T08:55:24.357Z,30.70
2022-12-17T08:57:46.126Z,31.53
2022-12-17T09:00:07.318Z,30.73
2022-12-17T09:02:28.762Z,25.53
2022-12-17T09:04:50.892Z,35.70
2022-12-17T09:07:11.846Z,31.90
2022-12-17T09:09:32.126Z,28.27
2022-12-17T09:11:52.406Z,25.93
2022-12-17T09:14:12.784Z,34.00
2022-12-17T09:16:33.547Z,26.90
2022-12-17T09:18:54.449Z,26.13
2022-12-17T09:21:16.276Z,27.57
2022-12-17T09:23:39.603Z,27.67
2022-12-17T09:26:00.417Z,30.33
2022-12-17T09:28:21.538Z,26.07
2022-12-17T09:30:42.309Z,26.83
2022-12-17T09:33:02.854Z,29.30
2022-12-17T09:35:23.864Z,27.50
2022-12-17T09:37:45.511Z,27.13
2022-12-17T09:40:11.312Z,33.27
2022-12-17T09:42:38.624Z,29.63
2022-12-17T09:45:05.884Z,32.87
2022-12-17T09:47:36.347Z,40.97
2022-12-17T09:49:57.476Z,36.43
2022-12-17T09:52:17.984Z,31.73
2022-12-17T09:54:47.230Z,28.40
2022-12-17T09:57:09.141Z,28.43
2022-12-17T09:59:38.437Z,30.57
2022-12-17T10:01:59.089Z,29.97
2022-12-17T10:04:21.092Z,32.57
2022-12-17T10:06:46.185Z,44.77
2022-12-17T10:09:09.601Z,33.30
2022-12-17T10:11:38.686Z,34.03
2022-12-17T10:13:58.946Z,33.73
2022-12-17T10:16:22.215Z,41.17
2022-12-17T10:18:43.045Z,37.97
2022-12-17T10:21:10.759Z,40.50
2022-12-17T10:23:42.426Z,36.07
2022-12-17T10:26:09.546Z,32.57
2022-12-17T10:28:33.284Z,33.67
2022-12-17T10:30:54.658Z,30.13
2022-12-17T10:33:15.162Z,30.70
2022-12-17T10:35:38.050Z,29.63
2022-12-17T10:37:59.001Z,31.90
2022-12-17T10:40:21.807Z,29.27
2022-12-17T10:42:45.076Z,31.60
2022-12-17T10:45:06.941Z,28.77
2022-12-17T10:47:33.220Z,31.00
2022-12-17T10:49:53.475Z,36.73
2022-12-17T10:52:18.874Z,36.60
2022-12-17T10:54:48.709Z,36.43
2022-12-17T10:57:11.979Z,40.43
2022-12-17T10:59:48.531Z,43.57
2022-12-17T11:02:16.847Z,40.40
2022-12-17T11:04:43.491Z,46.63
2022-12-17T11:07:06.396Z,60.57
2022-12-17T11:09:35.169Z,72.20
2022-12-17T11:11:56.443Z,75.50
2022-12-17T11:14:21.771Z,88.00
2022-12-17T11:16:44.820Z,84.80
2022-12-17T11:19:11.841Z,107.60
2022-12-17T11:21:38.307Z,105.53
2022-12-17T11:24:05.451Z,96.63
2022-12-17T11:26:30.784Z,92.83
2022-12-17T11:28:54.187Z,75.43
2022-12-17T11:31:29.384Z,77.57
2022-12-17T11:33:56.770Z,73.17
2022-12-17T11:36:41.062Z,71.47
2022-12-17T11:39:09.923Z,75.07
2022-12-17T11:41:37.096Z,66.67
2022-12-17T11:44:05.167Z,58.90
2022-12-17T11:46:37.311Z,66.53
2022-12-17T11:49:04.812Z,52.67
2022-12-17T11:51:35.648Z,57.03
2022-12-17T11:54:06.599Z,49.57
2022-12-17T11:56:37.608Z,48.70
2022-12-17T11:59:12.195Z,58.27
2022-12-17T12:01:39.071Z,62.53
2022-12-17T12:04:12.123Z,59.33
2022-12-17T12:06:41.518Z,52.80
2022-12-17T12:09:11.884Z,56.37
2022-12-17T12:11:55.132Z,61.90
2022-12-17T12:14:26.436Z,52.30
2022-12-17T12:16:54.186Z,48.87
2022-12-17T12:19:23.379Z,45.10
2022-12-17T12:21:59.139Z,42.73
2022-12-17T12:24:29.418Z,43.13
2022-12-17T12:27:01.193Z,43.87
2022-12-17T12:29:34.825Z,43.37
2022-12-17T12:32:03.693Z,42.80
2022-12-17T12:34:30.621Z,44.60
2022-12-17T12:36:56.326Z,46.17
2022-12-17T12:39:18.033Z,43.57
2022-12-17T12:41:48.224Z,45.90
2022-12-17T12:44:13.924Z,44.20
2022-12-17T12:46:39.483Z,43.83
2022-12-17T12:49:06.651Z,45.80
2022-12-17T12:51:34.476Z,40.17
2022-12-17T12:53:57.247Z,43.87
2022-12-17T12:56:19.168Z,40.80
2022-12-17T12:58:44.972Z,42.47
2022-12-17T13:01:13.779Z,40.93
2022-12-17T13:03:47.955Z,38.10
2022-12-17T13:05:50.402Z,53.50
2022-12-17T13:08:03.617Z,50.77
2022-12-17T13:10:25.855Z,49.10
2022-12-17T13:12:34.178Z,47.73
2022-12-17T13:14:49.894Z,46.80
2022-12-17T13:16:58.983Z,44.57
2022-12-17T13:19:20.311Z,46.33
2022-12-17T13:21:29.659Z,40.27
2022-12-17T13:23:38.207Z,38.70
2022-12-17T13:25:42.946Z,36.37
2022-12-17T13:27:46.674Z,39.97
2022-12-17T13:29:49.630Z,43.27
2022-12-17T13:32:17.183Z,48.40
2022-12-17T13:34:28.897Z,81.97
2022-12-17T13:36:39.239Z,61.03
2022-12-17T13:38:53.420Z,55.93
2022-12-17T13:41:10.081Z,40.27
2022-12-17T13:43:24.094Z,35.67
2022-12-17T13:45:33.714Z,37.60
2022-12-17T13:47:38.359Z,38.73
2022-12-17T13:49:41.653Z,35.67
2022-12-17T13:51:45.155Z,35.63
2022-12-17T13:53:54.864Z,33.67
2022-12-17T13:56:01.268Z,36.73
2022-12-17T13:58:04.303Z,36.57
2022-12-17T14:00:08.580Z,35.47
2022-12-17T14:02:25.436Z,43.47
2022-12-17T14:04:30.885Z,52.33
2022-12-17T14:06:37.625Z,39.83
2022-12-17T14:08:44.442Z,48.70
2022-12-17T14:10:51.913Z,45.87
2022-12-17T14:13:05.863Z,36.13
2022-12-17T14:15:23.467Z,35.47
2022-12-17T14:17:28.017Z,40.40
2022-12-17T14:19:33.359Z,35.90
2022-12-17T14:21:39.959Z,34.90
2022-12-17T14:23:46.772Z,33.53
2022-12-17T14:25:51.193Z,45.23
2022-12-17T14:27:56.761Z,92.27
2022-12-17T14:30:02.026Z,42.50
2022-12-17T14:32:25.099Z,41.20
2022-12-17T14:34:31.255Z,41.67
2022-12-17T14:36:38.206Z,36.50
2022-12-17T14:38:50.656Z,33.37
2022-12-17T14:40:54.938Z,32.13
2022-12-17T14:42:59.949Z,30.93
2022-12-17T14:45:08.223Z,32.27
2022-12-17T14:47:18.230Z,31.80
2022-12-17T14:49:23.643Z,26.63
2022-12-17T14:51:32.582Z,27.77
2022-12-17T14:53:35.774Z,27.50
2022-12-17T14:55:40.287Z,23.90
2022-12-17T14:57:43.232Z,29.43
2022-12-17T14:59:46.316Z,26.57
2022-12-17T15:01:55.752Z,32.33
2022-12-17T15:03:59.558Z,54.73
2022-12-17T15:06:04.368Z,30.27
2022-12-17T15:08:07.753Z,47.43
2022-12-17T15:10:12.458Z,43.00
2022-12-17T15:12:15.451Z,38.40
2022-12-17T15:14:18.459Z,30.43
2022-12-17T15:16:21.695Z,32.70
2022-12-17T15:18:26.546Z,31.83
2022-12-17T15:20:29.587Z,35.53
2022-12-17T15:22:32.504Z,34.67
2022-12-17T15:24:35.487Z,36.57
2022-12-17T15:26:38.409Z,41.97
2022-12-17T15:28:43.480Z,40.93
2022-12-17T15:30:47.349Z,49.97
2022-12-17T15:32:50.397Z,54.20
2022-12-17T15:34:54.717Z,51.80
2022-12-17T15:36:57.640Z,64.07
2022-12-17T15:39:01.736Z,60.67
2022-12-17T15:41:26.197Z,62.20
2022-12-17T15:43:28.156Z,55.97
2022-12-17T15:45:32.477Z,43.27
2022-12-17T15:47:35.570Z,43.30
2022-12-17T15:49:38.873Z,40.90
2022-12-17T15:51:43.281Z,39.67
2022-12-17T15:53:47.684Z,38.07
2022-12-17T15:55:50.588Z,49.90
2022-12-17T15:57:53.519Z,53.03
2022-12-17T15:59:56.495Z,53.30
2022-12-17T16:01:59.639Z,48.60
2022-12-17T16:04:02.746Z,47.83
2022-12-17T16:06:05.936Z,46.10
2022-12-17T16:08:10.336Z,42.60
2022-12-17T16:10:14.808Z,42.83
2022-12-17T16:12:17.784Z,44.10
2022-12-17T16:14:20.907Z,38.30
2022-12-17T16:16:24.652Z,40.93
2022-12-17T16:18:27.788Z,33.43
2022-12-17T16:20:31.045Z,33.93
2022-12-17T16:22:37.510Z,31.93
2022-12-17T16:24:43.268Z,32.03
2022-12-17T16:26:46.567Z,31.20
2022-12-17T16:28:50.176Z,29.40
2022-12-17T16:31:01.162Z,33.77
2022-12-17T16:33:04.445Z,33.67
2022-12-17T16:35:10.528Z,35.37
2022-12-17T16:37:13.791Z,37.80
2022-12-17T16:39:18.524Z,44.03
2022-12-17T16:41:23.893Z,39.00
2022-12-17T16:43:28.406Z,37.23
2022-12-17T16:45:31.587Z,39.60
2022-12-17T16:47:35.127Z,39.13
2022-12-17T16:49:38.089Z,38.50
2022-12-17T16:51:41.577Z,42.97
2022-12-17T16:53:44.592Z,40.63
2022-12-17T16:55:50.128Z,40.30
2022-12-17T16:57:54.544Z,41.33
2022-12-17T16:59:57.614Z,40.03
2022-12-17T17:02:00.727Z,41.37
2022-12-17T17:04:05.572Z,35.57
2022-12-17T17:06:08.744Z,41.53
2022-12-17T17:08:11.616Z,34.47
2022-12-17T17:10:14.634Z,38.67
2022-12-17T17:12:17.672Z,39.07
2022-12-17T17:14:22.314Z,34.90
2022-12-17T17:16:26.366Z,45.63
2022-12-17T17:18:29.651Z,36.23
2022-12-17T17:20:33.009Z,32.43
2022-12-17T17:22:36.024Z,38.13
2022-12-17T17:24:39.037Z,32.97
2022-12-17T17:26:41.972Z,30.20
2022-12-17T17:28:47.014Z,34.93
2022-12-17T17:30:51.343Z,26.17
2022-12-17T17:32:57.798Z,25.23
2022-12-17T17:35:00.782Z,20.03
2022-12-17T17:37:03.912Z,21.50
2022-12-17T17:39:07.321Z,18.27
2022-12-17T17:41:12.371Z,22.87
2022-12-17T17:43:15.309Z,17.27
2022-12-17T17:45:18.312Z,18.87
2022-12-17T17:47:22.680Z,26.87
2022-12-17T17:49:25.595Z,21.77
2022-12-17T17:52:07.159Z,16.13
2022-12-17T17:53:55.087Z,23.53
2022-12-17T17:56:03.969Z,25.17
2022-12-17T17:58:06.890Z,19.97
2022-12-17T18:00:11.454Z,23.97
2022-12-17T18:02:14.794Z,22.30
2022-12-17T18:04:24.266Z,22.13
2022-12-17T18:06:27.830Z,31.70
2022-12-17T18:08:31.480Z,29.80
2022-12-17T18:10:34.720Z,25.90
2022-12-17T18:12:55.300Z,20.03
2022-12-17T18:15:13.772Z,20.73
2022-12-17T18:17:17.775Z,24.27
2022-12-17T18:19:23.275Z,23.03
2022-12-17T18:21:27.825Z,26.87
2022-12-17T18:23:30.901Z,25.63
2022-12-17T18:25:37.679Z,24.90
2022-12-17T18:27:41.263Z,23.17
2022-12-17T18:29:44.388Z,26.23
2022-12-17T18:31:51.666Z,24.77
2022-12-17T18:33:58.393Z,30.27
2022-12-17T18:36:03.002Z,27.07
2022-12-17T18:38:05.906Z,23.03
2022-12-17T18:40:09.932Z,25.30
2022-12-17T18:42:30.121Z,26.83
2022-12-17T18:44:36.362Z,22.13
2022-12-17T18:46:39.966Z,24.37
2022-12-17T18:48:42.976Z,17.97
2022-12-17T18:50:45.930Z,17.07
2022-12-17T18:52:50.293Z,18.90
2022-12-17T18:54:53.225Z,17.03
2022-12-17T18:57:01.937Z,18.50
2022-12-17T18:59:06.245Z,17.73
2022-12-17T19:01:18.685Z,17.63
2022-12-17T19:03:21.920Z,17.07
2022-12-17T19:05:24.859Z,18.40
2022-12-17T19:07:27.831Z,15.53
2022-12-17T19:09:35.640Z,25.87
2022-12-17T19:11:43.397Z,27.80
2022-12-17T19:13:47.510Z,22.03
2022-12-17T19:15:50.395Z,18.93
2022-12-17T19:17:53.366Z,18.20
2022-12-17T19:19:56.321Z,16.53
2022-12-17T19:22:00.174Z,19.57
2022-12-17T19:24:05.635Z,21.43
2022-12-17T19:26:11.731Z,24.97
2022-12-17T19:28:14.682Z,21.23
2022-12-17T19:30:17.811Z,17.20
2022-12-17T19:32:20.725Z,17.00
2022-12-17T19:34:23.721Z,20.53
2022-12-17T19:36:28.866Z,16.63
2022-12-17T19:38:32.165Z,15.73
2022-12-17T19:40:36.015Z,17.00
2022-12-17T19:42:40.235Z,13.87
2022-12-17T19:44:43.222Z,16.47
2022-12-17T19:46:47.912Z,15.40
2022-12-17T19:48:52.491Z,19.23
2022-12-17T19:50:57.074Z,15.57
2022-12-17T19:53:00.032Z,14.83
2022-12-17T19:55:03.891Z,16.87
2022-12-17T19:57:06.924Z,16.70
2022-12-17T19:59:14.037Z,18.03
2022-12-17T20:01:19.486Z,14.73
2022-12-17T20:03:22.671Z,15.93
2022-12-17T20:05:25.615Z,20.23
2022-12-17T20:07:28.598Z,19.83
2022-12-17T20:09:31.667Z,23.27
2022-12-17T20:11:35.667Z,19.53
2022-12-17T20:13:39.029Z,21.70
2022-12-17T20:15:43.301Z,20.67
2022-12-17T20:17:46.193Z,22.87
2022-12-17T20:19:52.280Z,27.27
2022-12-17T20:21:55.855Z,25.83
2022-12-17T20:23:58.997Z,21.70
2022-12-17T20:26:06.067Z,19.40
2022-12-17T20:28:08.993Z,19.77
2022-12-17T20:30:12.619Z,19.00
2022-12-17T20:32:19.552Z,23.40
2022-12-17T20:34:25.179Z,23.43
2022-12-17T20:36:28.958Z,27.47
2022-12-17T20:38:32.012Z,22.33
2022-12-17T20:40:35.314Z,18.80
2022-12-17T20:42:38.529Z,21.10
2022-12-17T20:44:41.798Z,24.57
2022-12-17T20:46:44.802Z,23.70
2022-12-17T20:48:49.693Z,19.27
2022-12-17T20:50:52.800Z,26.00
2022-12-17T20:52:55.760Z,23.43
2022-12-17T20:55:01.010Z,23.17
2022-12-17T20:57:03.950Z,24.03
2022-12-17T20:59:08.795Z,22.73
2022-12-17T21:01:14.228Z,63.50
2022-12-17T21:03:17.474Z,42.47
2022-12-17T21:05:21.911Z,27.80
2022-12-17T21:07:24.824Z,25.63
2022-12-17T21:09:27.776Z,26.80
2022-12-17T21:11:32.481Z,24.67
2022-12-17T21:13:36.157Z,26.60
2022-12-17T21:15:39.334Z,38.30
2022-12-17T21:17:42.342Z,34.60
2022-12-17T21:19:45.344Z,29.73
2022-12-17T21:21:49.737Z,30.10
2022-12-17T21:23:53.984Z,27.10
2022-12-17T21:26:01.564Z,27.97
2022-12-17T21:28:05.769Z,26.90
2022-12-17T21:30:11.524Z,25.27
2022-12-17T21:32:16.591Z,24.80
2022-12-17T21:34:22.737Z,21.90
2022-12-17T21:36:26.882Z,22.70
2022-12-17T21:38:33.487Z,26.57
2022-12-17T21:40:36.918Z,24.93
2022-12-17T21:42:57.261Z,27.33
2022-12-17T21:45:00.632Z,22.83
2022-12-17T21:47:03.824Z,23.27
2022-12-17T21:49:06.786Z,23.10
2022-12-17T21:51:12.726Z,24.00
2022-12-17T21:53:16.455Z,21.60
2022-12-17T21:55:21.416Z,28.17
2022-12-17T21:57:24.413Z,21.67
2022-12-17T21:59:27.484Z,18.97
2022-12-17T22:01:32.683Z,21.77
2022-12-17T22:03:35.718Z,20.23
2022-12-17T22:05:39.036Z,24.10
2022-12-17T22:07:44.091Z,22.70
2022-12-17T22:10:21.394Z,21.23
2022-12-17T22:12:39.234Z,28.13
2022-12-17T22:14:43.427Z,20.40
2022-12-17T22:16:49.136Z,25.97
2022-12-17T22:18:53.170Z,25.47
2022-12-17T22:21:00.044Z,27.07
2022-12-17T22:23:04.710Z,29.83
2022-12-17T22:25:10.331Z,26.47
2022-12-17T22:27:17.079Z,25.63
2022-12-17T22:29:33.937Z,27.73
2022-12-17T22:31:54.491Z,26.00
2022-12-17T22:35:14.951Z,24.87
2022-12-17T22:38:50.915Z,27.20
2022-12-17T22:42:35.438Z,29.33
2022-12-17T22:44:09.775Z,30.20
2022-12-17T22:44:45.005Z,27.63
2022-12-17T22:46:00.335Z,23.43
2022-12-17T22:48:03.816Z,21.43
2022-12-17T22:50:07.672Z,22.77
2022-12-17T22:52:11.580Z,18.97
2022-12-17T22:54:15.370Z,22.87
2022-12-17T22:56:31.956Z,24.23
2022-12-17T22:58:43.540Z,21.43
2022-12-17T23:00:46.659Z,19.93
2022-12-17T23:02:52.249Z,22.37
2022-12-17T23:04:55.328Z,20.57
2022-12-17T23:06:58.372Z,19.67
2022-12-17T23:09:01.370Z,29.30
2022-12-17T23:11:08.012Z,24.20
2022-12-17T23:13:11.027Z,22.20
2022-12-17T23:15:15.308Z,20.47
2022-12-17T23:17:18.184Z,20.77
2022-12-17T23:19:21.059Z,20.07
2022-12-17T23:21:26.220Z,23.30
2022-12-17T23:23:29.161Z,24.37
2022-12-17T23:25:32.568Z,16.10
2022-12-17T23:27:35.641Z,22.73
2022-12-17T23:29:38.554Z,25.57
2022-12-17T23:31:42.934Z,17.40
2022-12-17T23:33:46.383Z,21.67
2022-12-17T23:35:49.342Z,22.80
2022-12-17T23:37:52.404Z,18.57
2022-12-17T23:39:55.348Z,19.23
2022-12-17T23:41:58.342Z,18.17
2022-12-17T23:44:01.583Z,16.90
2022-12-17T23:46:05.090Z,18.00
2022-12-17T23:48:09.739Z,18.73
2022-12-17T23:50:13.601Z,20.47
2022-12-17T23:52:16.655Z,16.93
2022-12-17T23:54:19.664Z,16.87
2022-12-17T23:56:24.582Z,18.50
2022-12-17T23:58:27.798Z,20.87
